Time;durP1;ratioP1;P1;durP2;ratioP2;P2;SDS_P1;SDS_P2;PMS_P1;PMS_P2;Temp;Humidity;BMP_temperature;BMP_pressure;BME280_temperature;BME280_humidity;BME280_pressure;Samples;Min_cycle;Max_cycle;Signal;HPM_P1;HPM_P2
2021/04/14 00:02:06;;;;;;;6.30;3.80;;;;;;;1.52;72.82;101910.22;10391099;28;20245;-69
2021/04/14 00:07:09;;;;;;;7.73;3.63;;;;;;;1.56;72.24;101907.47;10391243;28;20248;-71
2021/04/14 00:12:12;;;;;;;5.90;3.20;;;;;;;1.52;71.78;101911.09;10370428;28;20237;-70
2021/04/14 00:17:15;;;;;;;7.87;3.23;;;;;;;1.48;72.61;101910.28;10423618;28;20237;-70
2021/04/14 00:22:17;;;;;;;6.53;3.47;;;;;;;1.49;73.56;101908.50;10431947;28;20233;-70
2021/04/14 00:27:19;;;;;;;4.40;3.13;;;;;;;1.49;73.07;101906.72;10433825;28;20233;-70
2021/04/14 00:32:22;;;;;;;6.37;3.27;;;;;;;1.47;73.56;101907.66;10430930;28;21806;-70
2021/04/14 00:37:24;;;;;;;7.83;3.60;;;;;;;1.46;73.56;101896.19;10430306;28;20259;-70
2021/04/14 00:42:26;;;;;;;5.33;3.03;;;;;;;1.39;73.29;101894.53;10432345;28;20248;-70
2021/04/14 00:47:29;;;;;;;7.77;3.50;;;;;;;1.27;72.99;101902.72;10432665;28;20232;-70
2021/04/14 00:52:31;;;;;;;6.43;3.17;;;;;;;1.31;73.58;101896.47;10410517;28;20437;-71
2021/04/14 00:57:33;;;;;;;5.13;3.20;;;;;;;1.31;73.53;101888.50;10400829;28;20790;-71
2021/04/14 01:02:36;;;;;;;7.13;3.43;;;;;;;1.34;73.72;101896.41;10389699;28;20241;-70
2021/04/14 01:07:38;;;;;;;7.93;3.50;;;;;;;1.34;73.88;101899.03;10389023;28;20914;-71
2021/04/14 01:12:40;;;;;;;7.53;3.43;;;;;;;1.32;73.79;101900.88;10389155;28;20972;-71
2021/04/14 01:17:43;;;;;;;6.30;3.33;;;;;;;1.31;74.43;101895.59;10388974;28;20234;-71
2021/04/14 01:22:46;;;;;;;6.27;3.97;;;;;;;1.20;74.05;101895.78;10393078;28;20613;-71
2021/04/14 01:27:48;;;;;;;4.30;2.73;;;;;;;1.09;73.68;101895.97;10397908;28;20253;-71
2021/04/14 01:32:50;;;;;;;4.97;3.30;;;;;;;0.94;72.53;101896.25;10395469;28;20613;-71
2021/04/14 01:37:54;;;;;;;9.50;3.70;;;;;;;0.82;73.67;101892.91;10396404;28;20626;-71
2021/04/14 01:42:56;;;;;;;8.23;3.77;;;;;;;0.69;74.03;101890.50;10395197;28;20238;-70
2021/04/14 01:47:59;;;;;;;7.73;4.00;;;;;;;0.32;73.22;101893.69;10397559;28;20294;-71
2021/04/14 01:53:04;;;;;;;5.53;3.33;;;;;;;0.30;74.22;101898.09;10393122;28;20245;-71
2021/04/14 01:58:07;;;;;;;3.93;3.57;;;;;;;0.20;74.34;101893.84;10393309;28;20261;-71
2021/04/14 02:03:10;;;;;;;3.73;3.33;;;;;;;0.13;74.47;101886.00;10393496;28;20333;-71
2021/04/14 02:08:13;;;;;;;5.33;3.60;;;;;;;0.22;74.98;101885.03;10393700;28;20236;-71
2021/04/14 02:13:19;;;;;;;7.07;3.90;;;;;;;0.32;74.91;101883.09;10395955;28;20233;-71
2021/04/14 02:18:22;;;;;;;7.07;3.90;;;;;;;0.43;74.91;101880.31;10395215;28;20246;-71
2021/04/14 02:23:27;;;;;;;8.10;3.97;;;;;;;0.38;74.50;101883.91;10393633;28;20245;-71
2021/04/14 02:28:29;;;;;;;5.23;3.90;;;;;;;0.23;74.58;101876.19;10426390;28;20599;-70
2021/04/14 02:33:31;;;;;;;5.87;3.57;;;;;;;0.16;74.46;101870.13;10435796;28;21474;-69
2021/04/14 02:38:34;;;;;;;5.53;4.07;;;;;;;0.04;74.36;101858.84;10435161;28;20316;-70
2021/04/14 02:43:36;;;;;;;7.23;3.40;;;;;;;0.06;74.58;101865.84;10434671;28;20233;-71
2021/04/14 02:48:37;;;;;;;6.27;3.60;;;;;;;0.16;74.89;101864.84;10433850;28;20241;-71
2021/04/14 02:53:40;;;;;;;7.20;3.63;;;;;;;0.24;74.64;101866.47;10434346;28;20237;-70
2021/04/14 02:58:42;;;;;;;6.83;3.93;;;;;;;0.31;74.87;101868.16;10434836;28;20240;-71
2021/04/14 03:03:44;;;;;;;8.73;3.53;;;;;;;0.29;75.10;101869.94;10431585;28;20236;-71
2021/04/14 03:08:47;;;;;;;7.17;3.60;;;;;;;0.22;75.26;101869.16;10401671;28;20728;-70
2021/04/14 03:13:49;;;;;;;5.70;3.70;;;;;;;0.19;75.65;101863.03;10390393;28;20230;-71
2021/04/14 03:18:51;;;;;;;5.23;3.90;;;;;;;0.17;75.48;101857.78;10391692;28;20241;-71
2021/04/14 03:23:54;;;;;;;5.57;4.10;;;;;;;0.20;75.49;101867.44;10391796;28;20237;-71
2021/04/14 03:28:56;;;;;;;8.90;4.20;;;;;;;0.17;75.52;101866.56;10394273;28;20234;-70
2021/04/14 03:33:58;;;;;;;6.67;4.30;;;;;;;0.24;75.30;101858.53;10391497;28;20612;-70
2021/04/14 03:39:01;;;;;;;7.53;3.83;;;;;;;0.19;75.47;101857.72;10392940;28;20230;-70
2021/04/14 03:44:03;;;;;;;7.83;3.83;;;;;;;0.13;75.39;101859.56;10390198;28;20253;-70
2021/04/14 03:49:05;;;;;;;6.07;3.80;;;;;;;0.09;75.00;101852.59;10392070;28;20230;-71
2021/04/14 03:54:08;;;;;;;6.73;3.93;;;;;;;0.05;75.50;101855.28;10392980;28;20241;-69
2021/04/14 03:59:10;;;;;;;6.27;3.47;;;;;;;0.03;75.74;101863.25;10391483;28;20252;-71
2021/04/14 04:04:12;;;;;;;8.63;3.60;;;;;;;0.02;75.75;101861.47;10392045;28;20234;-70
2021/04/14 04:09:15;;;;;;;6.13;3.57;;;;;;;-0.07;75.50;101858.97;10390003;28;20261;-70
2021/04/14 04:14:17;;;;;;;7.20;3.80;;;;;;;-0.10;75.27;101859.03;10398105;28;20631;-71
2021/04/14 04:19:19;;;;;;;9.20;4.33;;;;;;;-0.07;74.96;101851.91;10391694;28;20238;-71
2021/04/14 04:24:22;;;;;;;5.07;4.37;;;;;;;0.02;75.20;101864.13;10390200;28;20627;-71
2021/04/14 04:29:24;;;;;;;7.00;3.73;;;;;;;-0.07;74.89;101873.06;10390636;28;20241;-70
2021/04/14 04:34:26;;;;;;;8.30;4.23;;;;;;;-0.07;75.02;101864.25;10414366;28;20243;-70
2021/04/14 04:39:30;;;;;;;7.20;5.77;;;;;;;-0.00;75.11;101870.31;10431514;28;20232;-71
2021/04/14 04:44:32;;;;;;;8.23;5.00;;;;;;;0.07;75.30;101877.28;10431959;28;20225;-71
2021/04/14 04:49:34;;;;;;;6.47;5.00;;;;;;;0.14;75.27;101878.97;10431616;28;20610;-70
2021/04/14 04:54:37;;;;;;;6.73;5.00;;;;;;;0.14;74.94;101890.41;10430967;28;20228;-71
2021/04/14 04:59:39;;;;;;;13.33;6.93;;;;;;;0.22;74.22;101890.31;10440029;28;20236;-71
2021/04/14 05:04:41;;;;;;;12.03;6.47;;;;;;;0.28;74.17;101892.84;10437512;28;20279;-71
2021/04/14 05:09:45;;;;;;;11.13;7.07;;;;;;;0.34;74.46;101892.75;10440733;28;20236;-71
2021/04/14 05:14:46;;;;;;;12.60;6.43;;;;;;;0.54;74.09;101902.16;10437621;28;20232;-71
2021/04/14 05:19:48;;;;;;;11.10;7.07;;;;;;;0.47;73.20;101893.47;10436528;28;20805;-71
2021/04/14 05:24:55;;;;;;;8.23;4.23;;;;;;;0.38;72.88;101897.13;10436758;28;21419;-71
2021/04/14 05:29:57;;;;;;;6.97;4.00;;;;;;;0.33;73.04;101901.59;10439026;28;20236;-71
2021/04/14 05:34:59;;;;;;;11.77;4.90;;;;;;;0.50;73.31;101901.34;10437689;28;20275;-71
2021/04/14 05:40:02;;;;;;;7.73;4.90;;;;;;;0.92;72.92;101905.97;10436823;28;20241;-71
2021/04/14 05:45:07;;;;;;;8.00;4.37;;;;;;;1.02;71.93;101913.75;10436273;28;20237;-71
2021/04/14 05:50:13;;;;;;;8.87;4.93;;;;;;;1.14;71.53;101914.44;10438616;28;20248;-71
2021/04/14 05:55:18;;;;;;;7.73;4.33;;;;;;;1.20;71.11;101920.47;10437785;28;20255;-72
2021/04/14 06:00:21;;;;;;;8.37;4.17;;;;;;;1.27;70.30;101919.47;10438310;28;20229;-70
2021/04/14 06:05:25;;;;;;;7.10;4.20;;;;;;;1.43;69.87;101925.38;10438125;28;20229;-71
2021/04/14 06:10:28;;;;;;;6.27;4.23;;;;;;;1.58;69.58;101923.34;10436611;28;20233;-71
2021/04/14 06:15:32;;;;;;;8.50;4.53;;;;;;;1.93;69.51;101923.50;10436511;28;20229;-72
2021/04/14 06:20:35;;;;;;;7.87;4.33;;;;;;;2.42;69.19;101924.25;10437394;28;20248;-71
2021/04/14 06:25:41;;;;;;;7.90;5.57;;;;;;;2.85;68.21;101931.22;10432676;28;20237;-71
2021/04/14 06:30:43;;;;;;;9.53;5.17;;;;;;;3.10;67.07;101936.81;10436215;28;20236;-71
2021/04/14 06:35:46;;;;;;;6.93;4.60;;;;;;;2.98;64.95;101934.44;10436920;28;20795;-71
2021/04/14 06:46:18;;;;;;;8.67;5.03;;;;;;;3.13;65.03;101930.56;10434809;28;20233;-71
2021/04/14 06:51:28;;;;;;;5.90;4.40;;;;;;;3.14;65.80;101934.94;10436949;28;20229;-71
2021/04/14 06:56:31;;;;;;;9.70;4.90;;;;;;;3.32;65.43;101925.63;10438061;28;20232;-70
2021/04/14 07:01:38;;;;;;;10.33;5.10;;;;;;;3.70;65.19;101924.56;10435023;28;20236;-71
2021/04/14 07:06:42;;;;;;;12.40;5.80;;;;;;;3.73;64.25;101929.84;10441153;28;20374;-72
2021/04/14 07:11:46;;;;;;;7.47;5.30;;;;;;;3.99;64.14;101921.09;10434748;28;20233;-71
2021/04/14 07:17:15;;;;;;;8.67;4.73;;;;;;;4.07;62.63;101935.06;10435784;28;20817;-71
2021/04/14 07:22:25;;;;;;;8.13;4.90;;;;;;;4.35;63.63;101928.91;10434457;28;20601;-71
2021/04/14 07:27:37;;;;;;;2.00;1.80;;;;;;;4.84;62.68;101927.38;10437628;28;20336;-71
2021/04/14 07:32:46;;;;;;;11.80;6.88;;;;;;;5.81;63.07;101921.38;10435004;28;20244;-72
2021/04/14 07:38:02;;;;;;;12.55;6.15;;;;;;;6.73;60.41;101924.06;10434862;28;20810;-71
2021/04/14 07:43:15;;;;;;;25.05;10.90;;;;;;;7.47;58.05;101918.31;10433981;28;20244;-72
2021/04/14 07:48:21;;;;;;;25.50;9.85;;;;;;;8.03;54.96;101909.53;10435414;28;20232;-71
2021/04/14 07:53:25;;;;;;;7.05;4.35;;;;;;;7.33;54.08;101910.03;10433717;28;20243;-71
2021/04/14 07:58:28;;;;;;;11.90;4.65;;;;;;;7.62;56.37;101911.41;10433310;28;20243;-72
2021/04/14 08:03:31;;;;;;;9.40;4.10;;;;;;;8.83;53.95;101906.63;10433349;28;20364;-71
2021/04/14 08:08:33;;;;;;;9.43;5.10;;;;;;;9.31;52.59;101912.28;10432706;28;20713;-72
2021/04/14 08:13:40;;;;;;;4.72;3.50;;;;;;;7.66;53.34;101913.03;10431822;28;20237;-72
2021/04/14 08:18:51;;;;;;;5.05;3.55;;;;;;;7.22;54.77;101900.66;10431681;28;20907;-72
2021/04/14 08:23:55;;;;;;;11.57;6.15;;;;;;;8.75;53.84;101911.50;10432417;28;20244;-72
2021/04/14 08:29:09;;;;;;;7.25;3.90;;;;;;;8.79;52.00;101896.13;10433103;28;20729;-72
2021/04/14 08:34:19;;;;;;;6.60;3.28;;;;;;;9.03;51.65;101904.78;10430504;28;20733;-71
2021/04/14 08:39:25;;;;;;;7.18;4.05;;;;;;;8.68;52.21;101893.13;10432528;28;20233;-71
2021/04/14 08:44:34;;;;;;;7.28;3.35;;;;;;;8.54;50.64;101902.69;10432871;28;20233;-71
2021/04/14 08:49:38;;;;;;;6.45;2.97;;;;;;;8.14;51.72;101895.66;10431190;28;20241;-71
2021/04/14 08:54:39;;;;;;;6.80;3.10;;;;;;;8.16;51.67;101891.97;10430477;28;20271;-71
2021/04/14 08:59:42;;;;;;;7.13;3.47;;;;;;;8.10;51.49;101894.94;10433084;28;20871;-71
2021/04/14 09:04:47;;;;;;;4.18;2.47;;;;;;;7.56;49.89;101888.50;10433133;28;20236;-71
2021/04/14 09:09:52;;;;;;;9.27;3.45;;;;;;;7.79;50.74;101899.94;10437495;28;20244;-71
2021/04/14 09:15:01;;;;;;;3.25;2.38;;;;;;;7.21;50.15;101890.03;10431369;28;20231;-71
2021/04/14 09:20:17;;;;;;;5.88;2.88;;;;;;;7.27;51.21;101884.44;10432546;28;20473;-71
2021/04/14 09:25:20;;;;;;;6.20;3.55;;;;;;;7.54;52.45;101887.69;10431946;28;21380;-71
2021/04/14 09:30:36;;;;;;;8.73;3.70;;;;;;;9.71;48.75;101878.00;10431380;28;20228;-72
2021/04/14 09:35:44;;;;;;;6.60;3.70;;;;;;;11.45;45.44;101867.13;10431614;28;20661;-71
2021/04/14 09:40:46;;;;;;;9.20;3.30;;;;;;;12.22;41.70;101862.28;10428711;28;20233;-71
2021/04/14 09:45:57;;;;;;;5.63;2.63;;;;;;;10.12;44.24;101872.19;10442159;28;20247;-71
2021/04/14 09:50:59;;;;;;;4.07;2.88;;;;;;;9.25;44.45;101867.88;10436817;28;20228;-71
2021/04/14 09:56:08;;;;;;;1.98;1.77;;;;;;;9.00;42.96;101862.03;10437223;28;20241;-71
2021/04/14 10:01:20;;;;;;;7.00;3.80;;;;;;;8.37;48.56;101863.31;10438230;28;20240;-71
2021/04/14 10:06:23;;;;;;;3.47;1.75;;;;;;;7.61;50.05;101864.22;10436530;28;20315;-71
2021/04/14 10:11:29;;;;;;;5.28;2.30;;;;;;;6.66;55.40;101874.47;10440041;28;20608;-71
2021/04/14 10:16:32;;;;;;;2.80;1.98;;;;;;;7.18;53.55;101858.09;10397419;28;20240;-72
2021/04/14 10:21:36;;;;;;;6.88;2.58;;;;;;;7.45;51.22;101854.19;10398226;28;20229;-70
2021/04/14 10:26:46;;;;;;;4.22;1.63;;;;;;;7.62;47.46;101848.09;10397416;28;20279;-71
2021/04/14 10:31:49;;;;;;;4.47;1.48;;;;;;;7.63;45.81;101849.84;10397514;28;20328;-71
2021/04/14 10:36:52;;;;;;;1.67;1.45;;;;;;;8.14;44.76;101851.00;10396834;28;20348;-70
2021/04/14 10:41:55;;;;;;;3.50;1.83;;;;;;;9.06;41.26;101841.13;10396587;28;20379;-70
2021/04/14 10:47:06;;;;;;;2.42;1.50;;;;;;;10.95;39.52;101819.06;10397394;28;20238;-71
2021/04/14 10:52:19;;;;;;;2.80;1.52;;;;;;;12.49;34.00;101816.53;10395774;28;21397;-71
2021/04/14 10:57:28;;;;;;;2.58;1.33;;;;;;;14.17;32.20;101821.91;10395149;28;20238;-71
2021/04/14 11:02:34;;;;;;;3.42;2.53;;;;;;;12.35;38.41;101814.75;10385963;28;20382;-69
2021/04/14 11:07:38;;;;;;;11.50;4.15;;;;;;;10.81;41.72;101820.75;10395501;28;20233;-69
2021/04/14 11:12:44;;;;;;;5.72;2.97;;;;;;;9.56;43.76;101820.63;10385557;28;20233;-69
2021/04/14 11:17:55;;;;;;;2.53;1.90;;;;;;;8.93;46.81;101826.63;10427137;28;20240;-69
2021/04/14 11:22:57;;;;;;;6.43;1.92;;;;;;;8.23;50.30;101838.13;10433452;28;20637;-71
2021/04/14 11:28:01;;;;;;;3.42;1.80;;;;;;;8.22;48.06;101825.69;10431328;28;20910;-71
2021/04/14 11:33:04;;;;;;;4.80;2.00;;;;;;;8.70;46.66;101832.31;10433369;28;20224;-71
2021/04/14 11:38:07;;;;;;;3.22;2.10;;;;;;;9.35;44.32;101814.63;10435261;28;20237;-70
2021/04/14 11:43:39;;;;;;;3.35;2.30;;;;;;;8.26;45.61;101814.78;10433890;28;20289;-71
2021/04/14 11:48:43;;;;;;;4.55;2.38;;;;;;;8.81;45.54;101817.41;10382629;28;20233;-71
2021/04/14 11:53:50;;;;;;;5.18;2.20;;;;;;;10.96;41.87;101804.66;10435501;28;20236;-71
2021/04/14 11:58:54;;;;;;;7.50;2.67;;;;;;;14.54;37.67;101819.22;10432912;28;20236;-72
2021/04/14 12:03:57;;;;;;;1.88;1.70;;;;;;;14.90;38.21;101811.97;10432538;28;20241;-72
2021/04/14 12:08:59;;;;;;;3.75;1.50;;;;;;;12.83;42.77;101812.44;10434087;28;20236;-71
2021/04/14 12:14:01;;;;;;;1.67;1.30;;;;;;;9.76;48.33;101822.22;10432620;28;20233;-72
2021/04/14 12:19:04;;;;;;;3.60;2.05;;;;;;;8.24;53.27;101816.66;10434664;28;20233;-72
2021/04/14 12:24:06;;;;;;;4.38;2.15;;;;;;;7.90;57.61;101809.38;10433298;28;20323;-71
2021/04/14 12:29:08;;;;;;;3.33;2.08;;;;;;;8.06;58.25;101807.69;10434686;28;20232;-72
2021/04/14 12:34:12;;;;;;;3.63;2.53;;;;;;;8.44;56.57;101802.28;10431827;28;20883;-71
2021/04/14 12:39:15;;;;;;;2.47;1.92;;;;;;;8.65;56.01;101788.81;10435453;28;20266;-72
2021/04/14 12:44:30;;;;;;;8.77;4.28;;;;;;;9.16;56.77;101782.56;10414323;28;20918;-71
2021/04/14 12:49:37;;;;;;;5.05;2.50;;;;;;;12.49;48.66;101776.09;10431148;28;20248;-71
2021/04/14 12:54:40;;;;;;;5.38;2.00;;;;;;;14.54;40.76;101770.53;10424382;28;20316;-72
2021/04/14 12:59:45;;;;;;;3.78;1.73;;;;;;;15.85;34.11;101755.69;10431682;28;20229;-69
2021/04/14 13:04:56;;;;;;;7.18;1.95;;;;;;;15.20;34.08;101750.03;10432096;28;20235;-69
2021/04/14 13:10:02;;;;;;;2.05;1.50;;;;;;;16.90;31.26;101753.25;10430418;28;20283;-70
2021/04/14 13:15:05;;;;;;;2.28;1.20;;;;;;;17.42;28.88;101743.28;10430336;28;20315;-70
2021/04/14 13:20:10;;;;;;;2.85;1.50;;;;;;;16.04;28.73;101739.63;10440163;28;20599;-70
2021/04/14 13:25:17;;;;;;;1.90;1.40;;;;;;;14.69;31.34;101739.59;10435252;28;20247;-70
2021/04/14 13:30:24;;;;;;;2.75;1.20;;;;;;;15.20;30.41;101720.25;10438076;28;20240;-70
2021/04/14 13:35:32;;;;;;;2.63;1.33;;;;;;;13.63;31.66;101717.81;10435306;28;20237;-70
2021/04/14 13:40:42;;;;;;;1.77;1.50;;;;;;;15.83;30.00;101709.78;10433960;28;20248;-70
2021/04/14 13:45:49;;;;;;;2.20;1.52;;;;;;;17.88;27.83;101709.22;10437717;28;20237;-70
2021/04/14 13:50:57;;;;;;;3.35;2.00;;;;;;;15.93;32.99;101710.75;10437969;28;20660;-69
2021/04/14 13:56:03;;;;;;;3.63;2.20;;;;;;;12.09;39.05;101723.97;10437374;28;20259;-69
2021/04/14 14:01:08;;;;;;;5.53;2.33;;;;;;;10.39;42.46;101730.97;10435132;28;20244;-70
2021/04/14 14:06:20;;;;;;;5.05;2.53;;;;;;;9.32;45.48;101736.13;10433995;28;20286;-71
2021/04/14 14:11:26;;;;;;;2.78;2.38;;;;;;;8.49;50.26;101729.78;10432833;28;20224;-70
2021/04/14 14:16:35;;;;;;;3.97;2.92;;;;;;;8.14;52.99;101738.59;10432322;28;20243;-70
2021/04/14 14:21:39;;;;;;;5.15;2.40;;;;;;;7.34;55.01;101736.19;10433661;28;20290;-69
2021/04/14 14:26:46;;;;;;;4.70;2.28;;;;;;;7.24;54.85;101749.13;10433246;28;20275;-70
2021/04/14 14:31:48;;;;;;;4.75;2.08;;;;;;;6.78;52.34;101751.13;10434698;28;20328;-70
2021/04/14 14:36:55;;;;;;;2.45;2.17;;;;;;;7.16;52.32;101737.91;10431356;28;20232;-71
2021/04/14 14:42:04;;;;;;;2.60;2.10;;;;;;;7.19;52.51;101742.25;10431941;28;20619;-71
2021/04/14 14:47:07;;;;;;;3.47;2.28;;;;;;;7.18;52.95;101740.50;10433849;28;20243;-71
2021/04/14 14:52:11;;;;;;;5.43;2.70;;;;;;;6.97;53.92;101734.31;10433575;28;21376;-72
2021/04/14 14:57:21;;;;;;;2.75;2.08;;;;;;;6.31;56.70;101748.69;10427414;28;20620;-71
2021/04/14 15:02:26;;;;;;;2.80;2.53;;;;;;;6.71;56.46;101727.41;10432128;28;20288;-71
2021/04/14 15:07:30;;;;;;;5.53;2.25;;;;;;;6.98;54.69;101726.22;10438776;28;20367;-71
2021/04/14 15:12:32;;;;;;;3.05;2.28;;;;;;;7.23;54.28;101719.78;10430083;28;20231;-70
2021/04/14 15:17:34;;;;;;;3.67;2.13;;;;;;;6.59;55.42;101718.13;10420836;28;20260;-70
2021/04/14 15:22:37;;;;;;;5.07;2.25;;;;;;;6.62;54.92;101712.66;10440183;28;20290;-70
2021/04/14 15:27:39;;;;;;;3.25;2.33;;;;;;;6.61;56.47;101711.81;10445977;28;20262;-71
2021/04/14 15:32:42;;;;;;;3.60;2.40;;;;;;;7.38;55.31;101707.53;10442718;28;20221;-71
2021/04/14 15:37:46;;;;;;;5.82;2.63;;;;;;;8.24;51.66;101700.66;10442571;28;20232;-70
2021/04/14 15:42:51;;;;;;;3.30;2.78;;;;;;;8.92;49.46;101696.25;10436587;28;20232;-69
2021/04/14 15:47:54;;;;;;;2.50;2.17;;;;;;;9.92;47.26;101688.06;10432370;28;20229;-70
2021/04/14 15:52:57;;;;;;;4.20;2.35;;;;;;;9.25;48.14;101690.03;10436010;28;20233;-70
2021/04/14 15:58:00;;;;;;;3.85;2.40;;;;;;;8.41;50.70;101689.97;10436288;28;20241;-71
2021/04/14 16:03:03;;;;;;;2.88;2.13;;;;;;;10.66;46.43;101692.63;10432929;28;20828;-69
2021/04/14 16:08:06;;;;;;;3.13;2.05;;;;;;;12.54;41.65;101684.16;10432001;28;20244;-70
2021/04/14 16:13:08;;;;;;;1.08;1.00;;;;;;;12.47;35.13;101678.31;10433500;28;20605;-70
2021/04/14 16:18:14;;;;;;;2.92;1.20;;;;;;;12.48;33.91;101676.47;10414155;28;20230;-70
2021/04/14 16:23:17;;;;;;;3.50;1.20;;;;;;;12.59;33.60;101672.09;10416413;28;20783;-70
2021/04/14 16:28:19;;;;;;;2.55;1.20;;;;;;;12.59;34.10;101669.38;10417218;28;20240;-70
2021/04/14 16:33:24;;;;;;;5.60;1.45;;;;;;;10.90;36.43;101678.66;10429950;28;20342;-71
2021/04/14 16:38:27;;;;;;;3.88;1.50;;;;;;;9.31;39.21;101675.41;10433082;28;20252;-71
2021/04/14 16:43:35;;;;;;;2.20;1.40;;;;;;;8.39;40.71;101671.31;10433341;28;20239;-71
2021/04/14 16:48:37;;;;;;;1.83;1.42;;;;;;;7.65;43.95;101675.91;10429553;28;20229;-71
2021/04/14 16:53:41;;;;;;;2.33;1.50;;;;;;;7.33;46.89;101674.78;10430419;28;20621;-70
2021/04/14 16:58:43;;;;;;;2.28;1.88;;;;;;;7.45;47.60;101675.06;10430227;28;20241;-70
2021/04/14 17:03:45;;;;;;;3.15;1.73;;;;;;;8.09;47.35;101671.06;10426952;28;20367;-70
2021/04/14 17:08:48;;;;;;;2.53;2.20;;;;;;;8.96;45.61;101680.88;10432105;28;20249;-71
2021/04/14 17:13:50;;;;;;;2.83;1.90;;;;;;;7.82;47.61;101681.31;10424583;28;20220;-71
2021/04/14 17:18:52;;;;;;;2.00;1.90;;;;;;;7.17;49.79;101683.50;10400275;28;20233;-71
2021/04/14 17:23:55;;;;;;;4.38;1.98;;;;;;;6.75;49.73;101687.16;10393365;28;21290;-70
2021/04/14 17:28:58;;;;;;;2.72;1.92;;;;;;;6.55;50.21;101692.50;10391939;28;20580;-71
2021/04/14 17:34:04;;;;;;;3.33;1.70;;;;;;;6.17;50.27;101687.88;10394318;28;20238;-70
2021/04/14 17:39:08;;;;;;;1.80;1.70;;;;;;;5.99;51.62;101695.78;10389447;28;20248;-71
2021/04/14 17:44:11;;;;;;;3.35;2.60;;;;;;;5.88;52.71;101693.53;10392791;28;20269;-70
2021/04/14 17:49:13;;;;;;;2.17;1.85;;;;;;;5.66;53.43;101704.19;10393195;28;20737;-71
2021/04/14 17:54:16;;;;;;;2.80;2.03;;;;;;;5.72;53.66;101699.47;10396541;28;20237;-72
2021/04/14 17:59:18;;;;;;;2.30;2.10;;;;;;;5.47;54.76;101706.72;10388920;28;20244;-72
2021/04/14 18:04:21;;;;;;;6.53;2.20;;;;;;;5.31;55.51;101702.91;10398177;28;20230;-70
2021/04/14 18:09:24;;;;;;;2.97;2.28;;;;;;;5.10;56.49;101713.44;10396433;28;20234;-72
2021/04/14 18:14:27;;;;;;;3.28;2.10;;;;;;;4.94;57.57;101715.75;10406715;28;20235;-71
2021/04/14 18:19:29;;;;;;;5.43;3.00;;;;;;;4.90;57.85;101718.56;10435911;28;21453;-71
2021/04/14 18:24:34;;;;;;;6.10;2.63;;;;;;;4.78;58.32;101720.75;10421409;28;20245;-71
2021/04/14 18:29:37;;;;;;;3.20;2.33;;;;;;;4.73;58.70;101724.50;10437661;28;20233;-71
2021/04/14 18:34:39;;;;;;;2.90;2.53;;;;;;;4.59;58.98;101730.31;10436507;28;20927;-72
2021/04/14 18:39:42;;;;;;;6.13;2.70;;;;;;;4.45;59.49;101724.59;10434507;28;20701;-71
2021/04/14 18:44:44;;;;;;;5.17;2.37;;;;;;;4.32;59.96;101732.13;10397785;28;20578;-72
2021/04/14 18:49:48;;;;;;;6.00;3.50;;;;;;;4.30;60.14;101737.47;10388545;28;20234;-72
2021/04/14 18:54:51;;;;;;;4.83;3.27;;;;;;;4.19;60.07;101731.66;10394533;28;20244;-72
2021/04/14 18:59:53;;;;;;;4.77;3.10;;;;;;;4.15;59.99;101738.88;10394733;28;20706;-72
2021/04/14 19:04:55;;;;;;;4.77;3.13;;;;;;;4.15;60.03;101741.53;10395019;28;20241;-70
2021/04/14 19:09:58;;;;;;;4.67;3.40;;;;;;;4.14;59.77;101745.13;10394291;28;20234;-71
2021/04/14 19:15:00;;;;;;;6.57;3.30;;;;;;;4.09;59.27;101744.41;10408949;28;20229;-71
2021/04/14 19:20:03;;;;;;;3.97;2.58;;;;;;;4.05;59.76;101753.38;10416591;28;20233;-71
2021/04/14 19:25:07;;;;;;;3.00;2.72;;;;;;;3.97;59.68;101751.88;10399728;28;20268;-71
2021/04/14 19:30:14;;;;;;;7.37;2.73;;;;;;;3.87;60.17;101759.28;10392804;28;20722;-71
2021/04/14 19:35:17;;;;;;;3.13;2.80;;;;;;;3.61;60.87;101760.06;10394986;28;20431;-71
2021/04/14 19:40:25;;;;;;;6.18;3.50;;;;;;;3.40;61.08;101759.81;10386400;28;20294;-71
2021/04/14 19:45:28;;;;;;;4.60;3.00;;;;;;;3.33;61.18;101760.03;10395257;28;20243;-71
2021/04/14 19:50:32;;;;;;;5.60;2.90;;;;;;;3.22;61.81;101763.00;10395417;28;20227;-71
2021/04/14 19:55:35;;;;;;;6.53;3.27;;;;;;;3.30;62.09;101763.66;10366405;28;20230;-71
2021/04/14 20:00:38;;;;;;;5.93;3.87;;;;;;;3.40;62.08;101770.44;10355468;28;20226;-70
2021/04/14 20:05:42;;;;;;;5.33;4.00;;;;;;;3.35;61.73;101759.06;10352813;28;20238;-71
2021/04/14 20:10:46;;;;;;;7.03;3.90;;;;;;;3.20;62.08;101773.66;10355046;28;20315;-71
2021/04/14 20:15:48;;;;;;;4.10;3.17;;;;;;;3.03;62.55;101771.47;10386186;28;20232;-71
2021/04/14 20:20:50;;;;;;;6.33;3.93;;;;;;;2.94;62.85;101777.03;10406365;28;20240;-70
2021/04/14 20:25:53;;;;;;;4.68;3.90;;;;;;;2.86;63.17;101783.47;10415304;28;20278;-71
2021/04/14 20:30:55;;;;;;;4.27;3.80;;;;;;;2.94;63.19;101787.66;10434744;28;20240;-70
2021/04/14 20:35:57;;;;;;;5.53;4.20;;;;;;;2.90;63.65;101780.66;10433434;28;20280;-70
2021/04/14 20:41:05;;;;;;;6.03;4.00;;;;;;;2.86;63.47;101786.97;10434314;28;20245;-71
2021/04/14 20:46:07;;;;;;;6.07;4.13;;;;;;;2.83;63.61;101797.69;10427408;28;20264;-71
2021/04/14 20:51:10;;;;;;;5.70;4.17;;;;;;;2.83;63.74;101790.59;10393479;28;20240;-71
2021/04/14 20:56:14;;;;;;;7.53;4.30;;;;;;;2.94;63.61;101797.41;10406273;28;20242;-71
2021/04/14 21:01:16;;;;;;;7.77;4.27;;;;;;;2.95;63.30;101793.81;10392317;28;20257;-71
2021/04/14 21:06:18;;;;;;;6.03;4.40;;;;;;;2.71;63.54;101782.06;10392845;28;20719;-71
2021/04/14 21:11:20;;;;;;;9.03;4.37;;;;;;;2.54;64.20;101798.41;10392251;28;20221;-71
2021/04/14 21:16:22;;;;;;;6.33;4.67;;;;;;;2.65;64.35;101790.19;10415165;28;20721;-71
2021/04/14 21:21:25;;;;;;;7.40;4.43;;;;;;;2.50;63.94;101794.09;10431428;28;20741;-72
2021/04/14 21:26:27;;;;;;;7.30;4.47;;;;;;;2.39;64.58;101792.56;10432503;28;20244;-71
2021/04/14 21:31:29;;;;;;;7.60;5.00;;;;;;;2.32;64.71;101792.75;10432699;28;20587;-72
2021/04/14 21:36:31;;;;;;;7.23;5.40;;;;;;;2.40;64.97;101788.13;10431119;28;20271;-72
2021/04/14 21:41:34;;;;;;;7.93;5.10;;;;;;;2.52;64.93;101789.59;10439435;28;20229;-74
2021/04/14 21:46:36;;;;;;;10.00;5.97;;;;;;;2.40;64.77;101796.06;10437130;28;20272;-73
2021/04/14 21:51:39;;;;;;;13.30;6.73;;;;;;;2.32;65.33;101801.56;10437555;28;20233;-72
2021/04/14 21:56:42;;;;;;;9.47;6.20;;;;;;;2.22;65.61;101794.72;10435790;28;20243;-71
2021/04/14 22:01:44;;;;;;;9.17;5.23;;;;;;;2.19;65.63;101794.81;10433054;28;20598;-71
2021/04/14 22:06:47;;;;;;;11.27;5.43;;;;;;;2.16;65.69;101789.56;10434393;28;20229;-72
2021/04/14 22:11:50;;;;;;;9.13;5.20;;;;;;;2.08;65.93;101789.75;10436256;28;20235;-71
2021/04/14 22:16:52;;;;;;;6.57;5.20;;;;;;;2.04;65.95;101787.22;10373470;28;20230;-71
2021/04/14 22:21:55;;;;;;;10.80;4.83;;;;;;;1.64;67.52;101783.66;10354158;28;20231;-71
2021/04/14 22:26:57;;;;;;;7.53;5.00;;;;;;;1.56;67.44;101782.97;10352929;28;20615;-71
2021/04/14 22:31:59;;;;;;;8.17;5.87;;;;;;;1.30;68.44;101782.66;10353794;28;20682;-71
2021/04/14 22:37:01;;;;;;;12.10;7.00;;;;;;;1.32;68.72;101788.75;10353695;28;20340;-71
2021/04/14 22:42:05;;;;;;;11.13;7.10;;;;;;;1.44;69.11;101785.88;10355507;28;20246;-72
2021/04/14 22:47:07;;;;;;;11.73;7.07;;;;;;;1.43;69.26;101781.50;10351500;28;20234;-71
2021/04/14 22:52:09;;;;;;;10.77;6.43;;;;;;;1.43;69.55;101779.72;10351564;28;20245;-71
2021/04/14 22:57:12;;;;;;;12.10;7.90;;;;;;;1.64;69.42;101790.75;10350107;28;20265;-71
2021/04/14 23:02:14;;;;;;;11.00;6.87;;;;;;;1.79;69.20;101782.47;10357959;28;20718;-71
2021/04/14 23:07:17;;;;;;;10.67;6.93;;;;;;;1.65;68.82;101777.50;10385780;28;20249;-71
2021/04/14 23:12:20;;;;;;;10.70;6.77;;;;;;;1.35;69.51;101779.00;10391950;28;20582;-71
2021/04/14 23:17:22;;;;;;;7.93;6.07;;;;;;;1.18;69.53;101789.03;10426292;28;20236;-71
2021/04/14 23:22:24;;;;;;;9.93;6.13;;;;;;;1.01;69.99;101784.94;10432869;28;20791;-73
2021/04/14 23:27:27;;;;;;;11.33;7.37;;;;;;;1.10;70.35;101789.22;10432899;28;20371;-71
2021/04/14 23:32:29;;;;;;;9.97;6.97;;;;;;;1.09;69.76;101795.38;10403991;28;20549;-71
2021/04/14 23:37:31;;;;;;;10.23;7.33;;;;;;;1.20;69.17;101793.41;10392769;28;20678;-72